createdAt,value
2023-04-05T05:39:19.308Z,100.00
2023-04-05T05:46:43.746Z,100.00
2023-04-05T05:49:47.848Z,100.00
2023-04-05T05:52:50.599Z,100.00
2023-04-05T05:55:53.039Z,100.00
2023-04-05T05:58:55.885Z,100.00
2023-04-05T06:01:59.685Z,100.00
2023-04-05T06:05:03.020Z,100.00
2023-04-05T06:08:05.982Z,100.00
2023-04-05T06:11:08.462Z,100.00
2023-04-05T06:14:11.136Z,100.00
2023-04-05T06:17:14.933Z,100.00
2023-04-05T06:20:17.507Z,100.00
2023-04-05T06:23:19.956Z,100.00
2023-04-05T06:26:27.118Z,100.00
2023-04-05T06:29:29.601Z,100.00
2023-04-05T06:32:33.448Z,100.00
2023-04-05T06:35:36.022Z,100.00
2023-04-05T06:38:38.652Z,100.00
2023-04-05T06:41:41.361Z,100.00
2023-04-05T06:44:43.807Z,100.00
2023-04-05T06:47:47.662Z,100.00
2023-04-05T06:50:57.994Z,100.00
2023-04-05T06:54:00.563Z,100.00
2023-04-05T06:57:03.040Z,100.00
2023-04-05T07:00:10.711Z,100.00
2023-04-05T07:03:14.563Z,100.00
2023-04-05T07:06:17.074Z,100.00
2023-04-05T07:09:20.611Z,100.00
2023-04-05T07:12:23.062Z,100.00
2023-04-05T07:15:25.961Z,100.00
2023-04-05T07:18:30.786Z,100.00
2023-04-05T07:21:33.314Z,100.00
2023-04-05T07:24:35.978Z,100.00
2023-04-05T07:27:39.750Z,100.00
2023-04-05T07:30:42.602Z,100.00
2023-04-05T07:33:46.528Z,100.00
2023-04-05T07:36:50.382Z,100.00
2023-04-05T07:39:52.853Z,100.00
2023-04-05T07:42:55.832Z,100.00
2023-04-05T07:46:02.790Z,100.00
2023-04-05T07:49:06.678Z,100.00
2023-04-05T07:52:09.157Z,100.00
2023-04-05T07:55:12.189Z,100.00
2023-04-05T07:58:15.927Z,100.00
2023-04-05T08:01:18.664Z,100.00
2023-04-05T08:04:22.606Z,100.00
2023-04-05T08:07:25.278Z,100.00
2023-04-05T08:10:28.054Z,100.00
2023-04-05T08:13:30.643Z,100.00
2023-04-05T08:16:33.741Z,100.00
2023-04-05T08:19:37.597Z,100.00
2023-04-05T08:22:40.089Z,100.00
2023-04-05T08:25:42.802Z,100.00
2023-04-05T08:28:45.517Z,100.00
2023-04-05T08:31:48.028Z,99.64
2023-04-05T08:34:51.899Z,96.81
2023-04-05T08:37:54.393Z,96.20
2023-04-05T08:40:56.912Z,98.25
2023-04-05T08:44:02.879Z,95.83
2023-04-05T08:47:05.887Z,93.19
2023-04-05T08:50:13.535Z,92.74
2023-04-05T08:53:16.048Z,91.42
2023-04-05T08:56:22.808Z,91.90
2023-04-05T08:59:25.720Z,92.47
2023-04-05T09:02:29.224Z,92.35
2023-04-05T09:05:33.430Z,88.60
2023-04-05T09:08:35.924Z,89.75
2023-04-05T09:11:38.900Z,85.22
2023-04-05T09:14:42.955Z,84.69
2023-04-05T09:17:45.672Z,82.70
2023-04-05T09:20:49.579Z,82.06
2023-04-05T09:23:53.897Z,80.96
2023-04-05T09:27:05.612Z,81.25
2023-04-05T09:30:22.275Z,82.50
2023-04-05T09:33:25.756Z,80.67
2023-04-05T09:36:29.614Z,80.07
2023-04-05T09:39:33.673Z,79.30
2023-04-05T09:42:45.899Z,80.32
2023-04-05T09:45:48.409Z,81.64
2023-04-05T09:48:51.411Z,80.77
2023-04-05T09:51:55.400Z,79.36
2023-04-05T09:54:59.789Z,78.18
2023-04-05T09:58:03.211Z,74.70
2023-04-05T10:04:09.053Z,73.16
2023-04-05T10:07:14.432Z,77.05
2023-04-05T10:10:16.917Z,76.46
2023-04-05T10:13:20.486Z,75.32
2023-04-05T10:16:27.450Z,81.70
2023-04-05T10:19:35.265Z,84.50
2023-04-05T10:22:45.297Z,89.88
2023-04-05T10:25:54.521Z,94.03
2023-04-05T10:29:02.760Z,98.78
2023-04-05T10:32:14.808Z,100.00
2023-04-05T10:35:19.061Z,100.00
2023-04-05T10:38:26.010Z,100.00
2023-04-05T10:41:31.411Z,100.00
2023-04-05T10:44:37.070Z,100.00
2023-04-05T10:47:44.263Z,100.00
2023-04-05T10:50:48.753Z,100.00
2023-04-05T10:53:52.955Z,100.00
2023-04-05T10:56:56.592Z,100.00
2023-04-05T11:00:01.071Z,96.65
2023-04-05T11:03:03.610Z,92.01
2023-04-05T11:06:19.918Z,92.86
2023-04-05T11:09:25.987Z,93.19
2023-04-05T11:13:09.009Z,93.73
2023-04-05T11:16:11.764Z,91.85
2023-04-05T11:19:14.264Z,93.66
2023-04-05T11:22:27.158Z,92.49
2023-04-05T11:25:31.328Z,93.15
2023-04-05T11:28:37.727Z,90.57
2023-04-05T11:31:59.404Z,91.04
2023-04-05T11:35:06.631Z,93.25
2023-04-05T11:38:09.464Z,92.75
2023-04-05T11:41:17.630Z,90.59
2023-04-05T11:44:20.656Z,89.57
2023-04-05T11:47:23.230Z,89.37
2023-04-05T11:50:26.314Z,87.18
2023-04-05T11:53:28.795Z,87.93
2023-04-05T11:56:32.609Z,85.06
2023-04-05T11:59:36.656Z,77.03
2023-04-05T12:02:44.785Z,69.88
2023-04-05T12:05:51.462Z,66.20
2023-04-05T12:08:55.951Z,65.09
2023-04-05T12:11:59.784Z,61.40
2023-04-05T12:15:03.239Z,60.18
2023-04-05T12:18:07.859Z,57.18
2023-04-05T12:21:11.241Z,57.86
2023-04-05T12:24:13.907Z,56.74
2023-04-05T12:27:18.073Z,57.57
2023-04-05T12:30:22.150Z,57.90
2023-04-05T12:33:28.471Z,65.74
2023-04-05T12:36:32.555Z,67.09
2023-04-05T12:39:35.052Z,68.74
2023-04-05T12:42:40.451Z,71.41
2023-04-05T12:45:44.460Z,70.40
2023-04-05T12:48:51.561Z,70.57
2023-04-05T12:51:54.025Z,71.22
2023-04-05T12:54:56.809Z,71.43
2023-04-05T12:58:03.770Z,70.58
2023-04-05T13:01:06.565Z,68.61
2023-04-05T13:04:15.927Z,68.66
2023-04-05T13:07:19.282Z,71.54
2023-04-05T13:10:22.888Z,70.06
2023-04-05T13:13:26.658Z,68.01
2023-04-05T13:16:29.148Z,63.77
2023-04-05T13:19:31.669Z,63.93
2023-04-05T13:22:34.360Z,61.72
2023-04-05T13:25:36.823Z,64.62
2023-04-05T13:28:40.605Z,68.59
2023-04-05T13:31:43.192Z,66.83
2023-04-05T13:34:45.772Z,65.54
2023-04-05T13:37:49.627Z,66.16
2023-04-05T13:40:52.121Z,64.99
2023-04-05T13:43:55.943Z,63.04
2023-04-05T13:46:58.423Z,59.42
2023-04-05T13:50:00.979Z,60.50
2023-04-05T13:53:03.437Z,59.62
2023-04-05T13:56:06.504Z,60.26
2023-04-05T13:59:10.345Z,64.17
2023-04-05T14:02:12.931Z,61.41
2023-04-05T14:05:17.125Z,58.73
2023-04-05T14:08:19.992Z,60.40
2023-04-05T14:11:23.025Z,61.31
2023-04-05T14:14:27.049Z,65.93
2023-04-05T14:17:29.683Z,64.89
2023-04-05T14:20:32.196Z,62.84
2023-04-05T14:23:34.696Z,65.20
2023-04-05T14:26:37.722Z,64.55
2023-04-05T14:29:41.515Z,64.44
2023-04-05T14:32:45.176Z,65.65
2023-04-05T14:35:47.797Z,62.04
2023-04-05T14:38:50.322Z,60.18
2023-04-05T14:41:54.135Z,60.99
2023-04-05T14:44:58.157Z,61.43
2023-04-05T14:48:01.215Z,60.62
2023-04-05T14:51:03.971Z,62.13
2023-04-05T14:54:07.243Z,64.64
2023-04-05T14:57:09.692Z,66.37
2023-04-05T15:00:14.876Z,66.16
2023-04-05T15:03:19.506Z,66.17
2023-04-05T15:06:22.394Z,64.51
2023-04-05T15:09:24.905Z,65.04
2023-04-05T15:12:27.475Z,68.34
2023-04-05T15:15:32.763Z,70.48
2023-04-05T15:18:35.219Z,70.26
2023-04-05T15:21:39.028Z,71.12
2023-04-05T15:24:42.806Z,70.88
2023-04-05T15:27:45.395Z,69.67
2023-04-05T15:30:51.205Z,70.73
2023-04-05T15:33:53.695Z,70.58
2023-04-05T15:36:56.647Z,69.96
2023-04-05T15:40:00.619Z,69.66
2023-04-05T15:43:04.342Z,69.22
2023-04-05T15:46:08.122Z,69.76
2023-04-05T15:49:13.645Z,69.47
2023-04-05T15:52:17.641Z,69.01
2023-04-05T15:55:20.382Z,70.03
2023-04-05T15:58:22.849Z,70.85
2023-04-05T16:01:26.698Z,73.05
2023-04-05T16:04:30.482Z,73.58
2023-04-05T16:07:33.006Z,72.55
2023-04-05T16:10:35.528Z,72.08
2023-04-05T16:13:38.045Z,72.24
2023-04-05T16:16:53.299Z,74.72
2023-04-05T16:19:57.483Z,73.30
2023-04-05T16:22:59.994Z,73.42
2023-04-05T16:26:02.816Z,73.94
2023-04-05T16:29:05.480Z,74.47
2023-04-05T16:32:09.396Z,73.60
2023-04-05T16:35:11.934Z,74.88
2023-04-05T16:38:14.463Z,75.59
2023-04-05T16:41:16.936Z,75.88
2023-04-05T16:44:19.411Z,76.25
2023-04-05T16:47:23.343Z,76.71
2023-04-05T16:50:25.834Z,77.42
2023-04-05T16:53:28.291Z,78.37
2023-04-05T16:56:30.936Z,80.03
2023-04-05T16:59:33.481Z,79.39
2023-04-05T17:02:37.404Z,79.97
2023-04-05T17:05:39.898Z,79.52
2023-04-05T17:08:42.945Z,81.30
2023-04-05T17:11:45.416Z,80.04
2023-04-05T17:14:47.863Z,81.78
2023-04-05T17:17:51.840Z,81.65
2023-04-05T17:20:54.361Z,81.19
2023-04-05T17:23:56.810Z,81.90
2023-04-05T17:26:59.250Z,82.06
2023-04-05T17:30:01.983Z,83.07
2023-04-05T17:33:05.932Z,83.41
2023-04-05T17:36:08.781Z,84.32
2023-04-05T17:39:11.276Z,84.64
2023-04-05T17:42:13.754Z,85.94
2023-04-05T17:45:16.217Z,85.38
2023-04-05T17:48:20.146Z,86.37
2023-04-05T17:51:22.968Z,87.19
2023-04-05T17:54:25.498Z,86.67
2023-04-05T17:57:27.971Z,86.61
2023-04-05T18:00:30.730Z,86.64
2023-04-05T18:03:34.658Z,86.41
2023-04-05T18:06:37.175Z,87.40
2023-04-05T18:09:41.975Z,86.31
2023-04-05T18:12:44.498Z,86.88
2023-04-05T18:15:47.330Z,88.42
2023-04-05T18:18:51.559Z,88.74
2023-04-05T18:21:54.009Z,89.97
2023-04-05T18:24:56.448Z,90.84
2023-04-05T18:28:00.056Z,91.18
2023-04-05T18:31:03.800Z,91.47
2023-04-05T18:34:07.578Z,91.43
2023-04-05T18:37:10.045Z,92.22
2023-04-05T18:40:12.940Z,92.58
2023-04-05T18:43:15.458Z,93.22
2023-04-05T18:46:18.837Z,94.57
2023-04-05T18:49:22.812Z,95.36
2023-04-05T18:52:27.320Z,97.09
2023-04-05T18:55:29.763Z,97.89
2023-04-05T18:58:32.308Z,99.55
2023-04-05T19:01:34.830Z,99.28
2023-04-05T19:04:38.591Z,99.01
